Terminal Aerodrome Forecast
Issued by NWS

Home | Current Version | Previous Version | Text Only | Print | Product List | Glossary On
Versions: 1 2 3 4 5 6 7 8 9 10 11 12 13 14 15 16
482
FTUS46 KSEW 222337
TAFBLI
TAF
KBLI 222337Z 2300/2324 22005KT P6SM VCSH SCT025 BKN035
     FM230300 VRB03KT P6SM SKC
     FM231400 03004KT 6SM BR SCT012
     FM231800 20004KT P6SM SKC=

USA.gov is the U.S. government's official web portal to all federal, state and local government web resources and services.